createdAt,value
2023-03-06T00:01:02.663Z,0.40
2023-03-06T00:03:29.834Z,0.40
2023-03-06T00:05:58.893Z,0.30
2023-03-06T00:08:28.676Z,0.30
2023-03-06T00:10:56.700Z,0.30
2023-03-06T00:13:24.532Z,0.60
2023-03-06T00:15:51.782Z,0.30
2023-03-06T00:18:18.994Z,0.30
2023-03-06T00:20:46.171Z,0.20
2023-03-06T00:23:13.529Z,0.40
2023-03-06T00:25:45.914Z,0.20
2023-03-06T00:28:15.768Z,0.20
2023-03-06T00:30:44.587Z,0.10
2023-03-06T00:33:12.288Z,0.10
2023-03-06T00:35:40.711Z,0.10
2023-03-06T00:38:09.898Z,0.10
2023-03-06T00:40:37.000Z,0.30
2023-03-06T00:43:04.089Z,0.40
2023-03-06T00:45:31.369Z,0.20
2023-03-06T00:47:58.543Z,0.40
2023-03-06T00:50:25.655Z,0.10
2023-03-06T00:52:52.748Z,0.20
2023-03-06T00:55:19.993Z,0.20
2023-03-06T00:57:47.106Z,0.20
2023-03-06T01:00:14.927Z,0.20
2023-03-06T01:02:42.147Z,0.20
2023-03-06T01:05:12.182Z,0.20
2023-03-06T01:07:39.331Z,0.20
2023-03-06T01:10:08.239Z,0.30
2023-03-06T01:12:35.804Z,0.20
2023-03-06T01:15:03.268Z,0.20
2023-03-06T01:17:30.456Z,0.20
2023-03-06T01:19:58.208Z,0.10
2023-03-06T01:22:25.395Z,0.20
2023-03-06T01:24:53.478Z,0.20
2023-03-06T01:27:21.951Z,0.40
2023-03-06T01:29:49.035Z,0.30
2023-03-06T01:32:16.280Z,0.30
2023-03-06T01:34:43.387Z,0.30
2023-03-06T01:37:10.623Z,0.30
2023-03-06T01:39:37.912Z,0.30
2023-03-06T01:42:05.726Z,0.30
2023-03-06T01:44:32.979Z,0.30
2023-03-06T01:47:02.379Z,0.30
2023-03-06T01:49:36.602Z,0.50
2023-03-06T01:52:14.689Z,0.40
2023-03-06T01:54:56.750Z,0.40
2023-03-06T01:57:29.525Z,0.30
2023-03-06T02:00:07.172Z,0.30
2023-03-06T02:02:48.248Z,0.30
2023-03-06T02:05:15.492Z,0.30
2023-03-06T02:07:44.623Z,0.30
2023-03-06T02:10:15.682Z,0.30
2023-03-06T02:12:44.077Z,0.30
2023-03-06T02:15:17.190Z,0.30
2023-03-06T02:17:48.608Z,0.30
2023-03-06T02:20:43.460Z,0.40
2023-03-06T02:23:50.273Z,0.30
2023-03-06T02:26:19.511Z,0.30
2023-03-06T02:28:46.890Z,0.20
2023-03-06T02:31:29.101Z,0.50
2023-03-06T02:34:19.507Z,0.20
2023-03-06T02:36:53.190Z,0.30
2023-03-06T02:39:25.335Z,0.30
2023-03-06T02:41:53.029Z,0.40
2023-03-06T02:44:23.358Z,0.30
2023-03-06T02:46:50.442Z,0.30
2023-03-06T02:49:17.583Z,0.30
2023-03-06T02:51:44.926Z,0.30
2023-03-06T02:54:12.736Z,0.30
2023-03-06T02:56:39.894Z,0.30
2023-03-06T02:59:07.747Z,0.40
2023-03-06T03:01:35.131Z,0.40
2023-03-06T03:04:03.643Z,0.40
2023-03-06T03:06:30.918Z,0.40
2023-03-06T03:08:58.094Z,0.40
2023-03-06T03:11:25.262Z,0.40
2023-03-06T03:13:52.635Z,0.60
2023-03-06T03:16:23.941Z,0.40
2023-03-06T03:18:51.288Z,0.40
2023-03-06T03:21:21.236Z,0.40
2023-03-06T03:23:49.210Z,0.40
2023-03-06T03:26:20.820Z,0.60
2023-03-06T03:29:04.218Z,0.40
2023-03-06T03:31:32.527Z,0.50
2023-03-06T03:34:00.878Z,0.40
2023-03-06T03:36:30.172Z,0.40
2023-03-06T03:38:58.220Z,0.70
2023-03-06T03:41:25.740Z,0.50
2023-03-06T03:43:52.872Z,0.60
2023-03-06T03:46:21.597Z,0.50
2023-03-06T03:48:50.613Z,0.50
2023-03-06T03:51:17.928Z,0.50
2023-03-06T03:53:49.400Z,0.50
2023-03-06T03:56:20.275Z,0.50
2023-03-06T03:58:57.536Z,0.50
2023-03-06T04:01:27.557Z,0.50
2023-03-06T04:03:55.266Z,0.50
2023-03-06T04:06:22.704Z,0.50
2023-03-06T04:08:50.124Z,0.60
2023-03-06T04:11:17.376Z,0.60
2023-03-06T04:13:44.799Z,0.60
2023-03-06T04:16:12.177Z,0.60
2023-03-06T04:18:40.790Z,0.60
2023-03-06T04:21:08.800Z,0.60
2023-03-06T04:23:36.873Z,0.60
2023-03-06T04:26:04.834Z,0.60
2023-03-06T04:28:32.778Z,0.60
2023-03-06T04:31:00.198Z,0.60
2023-03-06T04:33:28.059Z,0.60
2023-03-06T04:35:55.476Z,0.60
2023-03-06T04:38:26.832Z,0.60
2023-03-06T04:40:54.090Z,0.70
2023-03-06T04:43:21.510Z,0.60
2023-03-06T04:45:48.689Z,1.20
2023-03-06T04:48:18.408Z,0.60
2023-03-06T04:50:45.935Z,0.60
2023-03-06T04:53:14.578Z,0.60
2023-03-06T04:55:41.696Z,0.70
2023-03-06T04:58:11.370Z,0.70
2023-03-06T05:00:38.474Z,0.80
2023-03-06T05:03:05.582Z,0.70
2023-03-06T05:05:32.698Z,0.70
2023-03-06T05:07:59.850Z,1.10
2023-03-06T05:10:27.014Z,0.70
2023-03-06T05:12:54.171Z,0.70
2023-03-06T05:15:21.375Z,1.10
2023-03-06T05:17:48.632Z,0.70
2023-03-06T05:20:17.527Z,0.70
2023-03-06T05:22:44.958Z,0.80
2023-03-06T05:25:12.665Z,1.10
2023-03-06T05:27:40.262Z,1.10
2023-03-06T05:30:09.015Z,0.80
2023-03-06T05:32:36.206Z,0.70
2023-03-06T05:35:05.570Z,0.80
2023-03-06T05:37:33.037Z,0.80
2023-03-06T05:40:00.255Z,0.80
2023-03-06T05:42:28.819Z,0.80
2023-03-06T05:44:55.975Z,0.80
2023-03-06T05:47:23.075Z,0.90
2023-03-06T05:49:50.463Z,1.20
2023-03-06T05:52:17.737Z,0.90
2023-03-06T05:54:49.555Z,0.80
2023-03-06T05:57:16.786Z,0.80
2023-03-06T05:59:46.215Z,0.80
2023-03-06T06:02:13.602Z,0.90
2023-03-06T06:04:40.728Z,1.00
2023-03-06T06:07:07.906Z,1.00
2023-03-06T06:09:34.951Z,0.90
2023-03-06T06:12:03.855Z,0.90
2023-03-06T06:14:34.455Z,0.90
2023-03-06T06:17:01.589Z,0.90
2023-03-06T06:19:30.584Z,1.10
2023-03-06T06:21:58.223Z,1.00
2023-03-06T06:24:27.205Z,1.00
2023-03-06T06:26:58.072Z,1.00
2023-03-06T06:29:28.067Z,1.10
2023-03-06T06:31:56.205Z,1.00
2023-03-06T06:34:24.515Z,1.00
2023-03-06T06:36:53.568Z,1.10
2023-03-06T06:39:23.502Z,1.10
2023-03-06T06:42:09.630Z,1.00
2023-03-06T06:44:40.165Z,1.10
2023-03-06T06:47:25.194Z,1.10
2023-03-06T06:49:55.308Z,1.00
2023-03-06T06:52:24.527Z,1.10
2023-03-06T06:54:52.692Z,1.20
2023-03-06T06:57:19.765Z,1.10
2023-03-06T06:59:46.926Z,1.10
2023-03-06T07:02:15.978Z,1.10
2023-03-06T07:05:02.100Z,1.10
2023-03-06T07:07:31.434Z,1.10
2023-03-06T07:09:58.575Z,1.10
2023-03-06T07:12:25.736Z,1.20
2023-03-06T07:14:52.802Z,1.20
2023-03-06T07:17:19.843Z,1.20
2023-03-06T07:19:46.975Z,1.20
2023-03-06T07:22:14.074Z,1.20
2023-03-06T07:24:41.182Z,1.20
2023-03-06T07:27:08.384Z,1.20
2023-03-06T07:29:35.672Z,1.30
2023-03-06T07:32:03.214Z,1.20
2023-03-06T07:34:30.470Z,1.20
2023-03-06T07:36:57.572Z,1.30
2023-03-06T07:39:24.667Z,1.20
2023-03-06T07:41:52.428Z,1.30
2023-03-06T07:44:20.401Z,1.60
2023-03-06T07:46:47.616Z,1.30
2023-03-06T07:49:15.098Z,1.30
2023-03-06T07:51:42.269Z,1.20
2023-03-06T07:54:09.601Z,1.20
2023-03-06T07:56:36.921Z,1.20
2023-03-06T07:59:04.018Z,1.20
2023-03-06T08:01:31.158Z,1.20
2023-03-06T08:03:58.778Z,1.20
2023-03-06T08:06:27.654Z,1.30
2023-03-06T08:08:56.471Z,1.30
2023-03-06T08:11:27.241Z,1.30
2023-03-06T08:13:56.410Z,1.20
2023-03-06T08:16:30.402Z,1.20
2023-03-06T08:19:00.739Z,1.20
2023-03-06T08:21:28.906Z,1.20
2023-03-06T08:23:56.865Z,1.30
2023-03-06T08:26:27.885Z,1.30
2023-03-06T08:28:57.770Z,1.30
2023-03-06T08:31:39.399Z,1.30
2023-03-06T08:34:11.593Z,1.20
2023-03-06T08:36:38.713Z,1.30
2023-03-06T08:39:07.173Z,1.20
2023-03-06T08:41:35.917Z,1.20
2023-03-06T08:44:04.736Z,1.20
2023-03-06T08:46:33.025Z,1.30
2023-03-06T08:49:00.364Z,1.40
2023-03-06T08:51:29.054Z,1.30
2023-03-06T08:53:57.586Z,1.40
2023-03-06T08:56:29.142Z,1.40
2023-03-06T08:58:59.484Z,1.40
2023-03-06T09:01:30.637Z,1.40
2023-03-06T09:04:01.576Z,1.40
2023-03-06T09:06:34.247Z,1.40
2023-03-06T09:09:01.484Z,1.40
2023-03-06T09:11:29.559Z,1.40
2023-03-06T09:13:57.883Z,1.50
2023-03-06T09:16:25.739Z,1.50
2023-03-06T09:18:54.055Z,1.60
2023-03-06T09:21:23.281Z,1.60
2023-03-06T09:23:51.418Z,1.60
2023-03-06T09:26:18.761Z,1.70
2023-03-06T09:28:46.283Z,1.40
2023-03-06T09:31:19.882Z,1.80
2023-03-06T09:33:48.629Z,2.50
2023-03-06T09:36:23.010Z,1.90
2023-03-06T09:38:50.874Z,2.00
2023-03-06T09:41:49.605Z,2.20
2023-03-06T09:44:20.335Z,2.10
2023-03-06T09:47:24.359Z,2.10
2023-03-06T09:50:11.707Z,2.20
2023-03-06T09:52:58.747Z,2.20
2023-03-06T09:55:31.208Z,2.30
2023-03-06T09:58:21.469Z,2.40
2023-03-06T10:00:57.493Z,2.40
2023-03-06T10:03:45.001Z,2.50
2023-03-06T10:06:25.321Z,2.50
2023-03-06T10:08:55.727Z,2.50
2023-03-06T10:11:38.619Z,2.50
2023-03-06T10:14:27.437Z,3.00
2023-03-06T10:16:56.136Z,2.60
2023-03-06T10:19:32.455Z,2.60
2023-03-06T10:22:12.946Z,2.60
2023-03-06T10:25:12.235Z,2.50
2023-03-06T10:28:08.654Z,2.60
2023-03-06T10:31:08.780Z,2.60
2023-03-06T10:33:50.190Z,2.60
2023-03-06T10:36:20.950Z,2.60
2023-03-06T10:38:49.317Z,2.70
2023-03-06T10:41:38.322Z,2.70
2023-03-06T10:44:05.467Z,2.80
2023-03-06T10:46:35.888Z,2.80
2023-03-06T10:49:30.157Z,2.90
2023-03-06T10:52:13.834Z,2.90
2023-03-06T10:54:44.804Z,3.20
2023-03-06T10:57:28.285Z,3.00
2023-03-06T11:00:08.224Z,3.10
2023-03-06T11:02:41.161Z,3.10
2023-03-06T11:05:20.856Z,3.10
2023-03-06T11:08:00.380Z,2.70
2023-03-06T11:10:30.967Z,3.20
2023-03-06T11:13:21.696Z,3.20
2023-03-06T11:16:07.896Z,3.20
2023-03-06T11:18:42.873Z,3.30
2023-03-06T11:21:31.982Z,3.30
2023-03-06T11:24:20.544Z,3.30
2023-03-06T11:27:01.956Z,3.40
2023-03-06T11:29:29.625Z,3.50
2023-03-06T11:32:37.951Z,3.50
2023-03-06T11:35:16.271Z,3.60
2023-03-06T11:37:58.485Z,3.70
2023-03-06T11:40:45.018Z,3.70
2023-03-06T11:43:37.755Z,3.80
2023-03-06T11:46:23.397Z,3.90
2023-03-06T11:48:56.090Z,3.90
2023-03-06T11:51:30.362Z,3.90
2023-03-06T11:54:00.887Z,3.90
2023-03-06T11:56:49.051Z,3.90
2023-03-06T12:00:00.398Z,3.80
2023-03-06T12:02:43.608Z,3.80
2023-03-06T12:05:38.050Z,3.80
2023-03-06T12:08:52.057Z,3.80
2023-03-06T12:11:50.305Z,3.70
2023-03-06T12:14:41.558Z,3.70
2023-03-06T12:17:29.774Z,3.60
2023-03-06T12:20:15.883Z,3.60
2023-03-06T12:23:02.464Z,3.50
2023-03-06T12:25:47.340Z,3.60
2023-03-06T12:28:23.219Z,3.50
2023-03-06T12:31:24.948Z,3.50
2023-03-06T12:34:28.245Z,3.40
2023-03-06T12:37:23.534Z,3.40
2023-03-06T12:40:29.757Z,3.40
2023-03-06T12:43:41.841Z,3.40
2023-03-06T12:46:21.469Z,3.30
2023-03-06T12:49:33.030Z,3.30
2023-03-06T12:52:04.438Z,3.30
2023-03-06T12:54:38.747Z,3.20
2023-03-06T12:57:09.731Z,3.20
2023-03-06T12:59:44.181Z,3.20
2023-03-06T13:02:26.310Z,3.20
2023-03-06T13:05:11.624Z,3.20
2023-03-06T13:07:57.761Z,3.20
2023-03-06T13:10:36.119Z,3.20
2023-03-06T13:13:25.738Z,3.20
2023-03-06T13:16:26.750Z,3.20
2023-03-06T13:19:03.892Z,3.20
2023-03-06T13:21:55.482Z,3.10
2023-03-06T13:24:26.050Z,3.10
2023-03-06T13:27:01.158Z,3.20
2023-03-06T13:29:37.369Z,3.20
2023-03-06T13:32:04.417Z,3.30
2023-03-06T13:34:43.377Z,3.60
2023-03-06T13:37:20.169Z,3.50
2023-03-06T13:39:58.969Z,3.50
2023-03-06T13:42:36.788Z,3.60
2023-03-06T13:45:30.092Z,3.60
2023-03-06T13:48:41.688Z,3.60
2023-03-06T13:50:51.709Z,3.60
2023-03-06T13:53:40.814Z,3.70
2023-03-06T13:56:32.677Z,3.70
2023-03-06T13:59:27.950Z,3.70
2023-03-06T14:02:29.091Z,3.80
2023-03-06T14:05:02.455Z,3.80
2023-03-06T14:07:33.510Z,3.90
2023-03-06T14:10:26.189Z,4.00
2023-03-06T14:13:17.512Z,4.10
2023-03-06T14:15:51.541Z,4.20
2023-03-06T14:18:25.660Z,4.20
2023-03-06T14:21:04.606Z,4.20
2023-03-06T14:23:38.198Z,3.90
2023-03-06T14:26:18.683Z,4.20
2023-03-06T14:29:03.010Z,4.10
2023-03-06T14:31:41.135Z,4.10
2023-03-06T14:34:19.947Z,4.10
2023-03-06T14:36:54.735Z,4.10
2023-03-06T14:39:44.874Z,4.10
2023-03-06T14:42:27.723Z,4.10
2023-03-06T14:45:20.655Z,4.00
2023-03-06T14:47:53.189Z,4.00
2023-03-06T14:50:33.240Z,4.00
2023-03-06T14:53:26.895Z,4.00
2023-03-06T14:56:06.038Z,3.90
2023-03-06T14:58:42.505Z,3.90
2023-03-06T15:01:13.242Z,3.90
2023-03-06T15:03:42.863Z,3.90
2023-03-06T15:06:19.483Z,3.90
2023-03-06T15:08:54.002Z,3.90
2023-03-06T15:11:21.026Z,3.80
2023-03-06T15:14:04.653Z,3.80
2023-03-06T15:16:32.264Z,3.80
2023-03-06T15:19:03.392Z,3.80
2023-03-06T15:21:38.832Z,3.70
2023-03-06T15:24:33.148Z,3.70
2023-03-06T15:27:07.046Z,3.80
2023-03-06T15:29:38.137Z,3.80
2023-03-06T15:32:14.378Z,3.70
2023-03-06T15:34:41.532Z,3.70
2023-03-06T15:37:28.763Z,3.60
2023-03-06T15:40:10.607Z,3.60
2023-03-06T15:42:37.885Z,3.60
2023-03-06T15:45:19.705Z,3.50
2023-03-06T15:47:49.830Z,3.40
2023-03-06T15:50:18.323Z,3.40
2023-03-06T15:52:47.711Z,3.30
2023-03-06T15:55:17.935Z,3.30
2023-03-06T15:58:01.058Z,3.20
2023-03-06T16:00:39.529Z,3.30
2023-03-06T16:03:06.675Z,3.20
2023-03-06T16:05:33.779Z,3.30
2023-03-06T16:08:00.895Z,3.20
2023-03-06T16:10:31.976Z,3.30
2023-03-06T16:13:08.541Z,3.50
2023-03-06T16:15:46.121Z,2.40
2023-03-06T16:18:13.797Z,3.10
2023-03-06T16:20:41.682Z,3.10
2023-03-06T16:23:10.728Z,3.10
2023-03-06T16:25:42.241Z,3.20
2023-03-06T16:28:15.549Z,3.10
2023-03-06T16:30:44.654Z,3.10
2023-03-06T16:33:13.390Z,3.00
2023-03-06T16:35:41.327Z,3.00
2023-03-06T16:38:10.521Z,3.00
2023-03-06T16:40:41.307Z,2.90
2023-03-06T16:43:10.720Z,2.90
2023-03-06T16:45:40.847Z,2.90
2023-03-06T16:48:14.045Z,2.90
2023-03-06T16:50:41.531Z,2.90
2023-03-06T16:53:09.057Z,2.90
2023-03-06T16:55:36.443Z,2.90
2023-03-06T16:58:03.638Z,2.90
2023-03-06T17:00:33.181Z,2.80
2023-03-06T17:03:02.443Z,2.80
2023-03-06T17:05:33.619Z,2.80
2023-03-06T17:08:01.278Z,2.80
2023-03-06T17:10:28.495Z,2.80
2023-03-06T17:12:56.717Z,2.80
2023-03-06T17:15:24.305Z,2.90
2023-03-06T17:17:52.377Z,2.80
2023-03-06T17:20:20.351Z,2.90
2023-03-06T17:22:47.483Z,2.80
2023-03-06T17:25:14.750Z,2.80
2023-03-06T17:27:41.937Z,2.80
2023-03-06T17:30:10.168Z,2.80
2023-03-06T17:32:40.982Z,2.80
2023-03-06T17:35:09.314Z,2.80
2023-03-06T17:37:36.782Z,2.80
2023-03-06T17:40:07.766Z,2.80
2023-03-06T17:42:35.739Z,2.80
2023-03-06T17:45:04.446Z,2.80
2023-03-06T17:47:31.504Z,2.80
2023-03-06T17:49:58.740Z,2.90
2023-03-06T17:52:25.913Z,2.80
2023-03-06T17:54:53.085Z,2.80
2023-03-06T17:57:20.164Z,2.80
2023-03-06T17:59:48.712Z,2.80
2023-03-06T18:02:16.407Z,2.80
2023-03-06T18:04:43.816Z,2.80
2023-03-06T18:07:11.426Z,2.80
2023-03-06T18:09:38.652Z,2.80
2023-03-06T18:12:06.037Z,2.80
2023-03-06T18:14:33.226Z,2.80
2023-03-06T18:17:00.352Z,2.80
2023-03-06T18:19:27.449Z,2.80
2023-03-06T18:21:54.533Z,2.80
2023-03-06T18:24:21.615Z,2.80
2023-03-06T18:26:48.652Z,2.90
2023-03-06T18:29:16.602Z,2.80
2023-03-06T18:31:44.791Z,2.80
2023-03-06T18:34:14.620Z,2.80
2023-03-06T18:36:47.113Z,2.70
2023-03-06T18:39:15.902Z,2.70
2023-03-06T18:41:43.049Z,2.70
2023-03-06T18:44:17.518Z,2.70
2023-03-06T18:46:45.292Z,2.70
2023-03-06T18:49:14.535Z,2.70
2023-03-06T18:51:42.123Z,2.70
2023-03-06T18:54:11.546Z,2.60
2023-03-06T18:56:40.393Z,2.70
2023-03-06T18:59:07.704Z,2.70
2023-03-06T19:01:35.128Z,2.80
2023-03-06T19:04:04.470Z,2.70
2023-03-06T19:06:31.852Z,2.60
2023-03-06T19:08:59.083Z,2.70
2023-03-06T19:11:27.219Z,2.60
2023-03-06T19:13:54.995Z,2.60
2023-03-06T19:16:26.824Z,2.60
2023-03-06T19:18:58.061Z,2.60
2023-03-06T19:21:27.827Z,2.50
2023-03-06T19:23:56.421Z,2.60
2023-03-06T19:26:24.523Z,2.50
2023-03-06T19:28:52.491Z,2.50
2023-03-06T19:31:27.024Z,2.50
2023-03-06T19:33:56.852Z,2.50
2023-03-06T19:36:27.518Z,2.50
2023-03-06T19:39:00.074Z,2.50
2023-03-06T19:41:28.174Z,2.60
2023-03-06T19:43:58.976Z,2.50
2023-03-06T19:46:27.251Z,2.50
2023-03-06T19:49:00.133Z,2.80
2023-03-06T19:51:28.403Z,2.60
2023-03-06T19:53:57.599Z,2.50
2023-03-06T19:56:28.793Z,2.50
2023-03-06T19:58:56.425Z,2.50
2023-03-06T20:01:28.190Z,2.50
2023-03-06T20:03:59.866Z,2.50
2023-03-06T20:06:31.366Z,2.50
2023-03-06T20:08:58.728Z,2.50
2023-03-06T20:11:31.508Z,2.50
2023-03-06T20:14:02.196Z,2.40
2023-03-06T20:16:30.607Z,2.40
2023-03-06T20:19:00.355Z,2.40
2023-03-06T20:21:31.370Z,2.40
2023-03-06T20:23:59.154Z,2.40
2023-03-06T20:26:28.939Z,2.40
2023-03-06T20:28:57.808Z,2.50
2023-03-06T20:31:29.251Z,2.50
2023-03-06T20:33:59.567Z,2.50
2023-03-06T20:36:36.324Z,2.60
2023-03-06T20:39:09.017Z,2.50
2023-03-06T20:41:36.577Z,2.50
2023-03-06T20:44:07.565Z,2.40
2023-03-06T20:46:35.510Z,2.30
2023-03-06T20:49:02.705Z,2.40
2023-03-06T20:51:37.615Z,2.30
2023-03-06T20:54:07.318Z,2.40
2023-03-06T20:56:36.637Z,2.30
2023-03-06T20:59:03.954Z,2.30
2023-03-06T21:01:38.497Z,2.30
2023-03-06T21:04:05.653Z,2.40
2023-03-06T21:06:33.519Z,2.30
2023-03-06T21:09:02.125Z,2.30
2023-03-06T21:11:29.679Z,2.30
2023-03-06T21:13:56.882Z,2.50
2023-03-06T21:16:26.903Z,2.30
2023-03-06T21:18:59.722Z,2.40
2023-03-06T21:21:33.697Z,2.30
2023-03-06T21:24:02.466Z,2.30
2023-03-06T21:26:33.932Z,2.30
2023-03-06T21:29:02.188Z,2.40
2023-03-06T21:31:30.929Z,2.30
2023-03-06T21:33:58.993Z,2.30
2023-03-06T21:36:26.475Z,2.30
2023-03-06T21:38:54.563Z,2.30
2023-03-06T21:41:25.075Z,2.20
2023-03-06T21:44:05.452Z,2.60
2023-03-06T21:46:33.623Z,2.20
2023-03-06T21:49:04.250Z,2.20
2023-03-06T21:51:31.431Z,2.20
2023-03-06T21:53:59.070Z,2.30
2023-03-06T21:56:28.472Z,2.30
2023-03-06T21:58:56.620Z,2.20
2023-03-06T22:01:28.656Z,2.10
2023-03-06T22:03:57.546Z,2.10
2023-03-06T22:06:27.581Z,2.00
2023-03-06T22:08:56.927Z,2.00
2023-03-06T22:11:26.148Z,2.00
2023-03-06T22:13:53.525Z,1.90
2023-03-06T22:16:20.901Z,1.90
2023-03-06T22:18:51.104Z,1.90
2023-03-06T22:21:21.597Z,1.90
2023-03-06T22:23:57.299Z,1.90
2023-03-06T22:26:26.347Z,2.00
2023-03-06T22:28:54.253Z,1.90
2023-03-06T22:31:25.328Z,2.30
2023-03-06T22:33:54.624Z,1.80
2023-03-06T22:36:23.422Z,2.00
2023-03-06T22:38:56.064Z,1.80
2023-03-06T22:41:26.754Z,1.80
2023-03-06T22:44:02.248Z,1.80
2023-03-06T22:46:30.602Z,1.80
2023-03-06T22:49:00.284Z,1.80
2023-03-06T22:51:29.655Z,1.80
2023-03-06T22:53:56.845Z,1.80
2023-03-06T22:56:24.158Z,1.80
2023-03-06T22:58:51.416Z,1.90
2023-03-06T23:01:25.215Z,1.80
2023-03-06T23:04:04.337Z,1.80
2023-03-06T23:06:41.111Z,1.80
2023-03-06T23:09:29.171Z,2.10
2023-03-06T23:12:15.034Z,1.70
2023-03-06T23:15:00.770Z,1.60
2023-03-06T23:17:46.289Z,1.60
2023-03-06T23:20:32.301Z,1.60
2023-03-06T23:23:18.192Z,1.60
2023-03-06T23:25:45.301Z,1.60
2023-03-06T23:28:12.728Z,1.60
2023-03-06T23:30:41.045Z,1.50
2023-03-06T23:33:08.908Z,1.50
2023-03-06T23:35:38.968Z,1.50
2023-03-06T23:38:06.596Z,1.50
2023-03-06T23:40:34.703Z,1.40
2023-03-06T23:43:02.075Z,1.40
2023-03-06T23:45:29.368Z,1.40
2023-03-06T23:47:57.231Z,1.50
2023-03-06T23:50:26.167Z,1.50
2023-03-06T23:52:55.551Z,1.40
2023-03-06T23:55:22.758Z,1.40
2023-03-06T23:57:50.048Z,1.40
